Time;durP1;ratioP1;P1;durP2;ratioP2;P2;SDS_P1;SDS_P2;PMS_P1;PMS_P2;Temp;Humidity;BMP_temperature;BMP_pressure;BME280_temperature;BME280_humidity;BME280_pressure;Samples;Min_cycle;Max_cycle;Signal;HPM_P1;HPM_P2
2022/09/18 00:01:09;;;;;;;;;;;12.00;79.60;;;;;;5087710;28;20459;-65
2022/09/18 00:03:36;;;;;;;;;;;11.90;80.00;;;;;;5092461;28;19931;-63
2022/09/18 00:06:06;;;;;;;;;;;11.90;79.80;;;;;;5092758;28;20397;-63
2022/09/18 00:08:34;;;;;;;;;;;11.90;80.20;;;;;;5092340;28;19924;-63
2022/09/18 00:11:10;;;;;;;;;;;11.90;80.40;;;;;;5088575;28;21353;-63
2022/09/18 00:13:40;;;;;;;;;;;11.90;80.40;;;;;;5089443;28;20286;-64
2022/09/18 00:16:08;;;;;;;;;;;11.90;80.50;;;;;;5092790;28;20327;-63
2022/09/18 00:18:35;;;;;;;;;;;11.90;80.40;;;;;;5092607;28;19932;-63
2022/09/18 00:21:05;;;;;;;;;;;11.90;80.50;;;;;;5076891;28;19963;-64
2022/09/18 00:23:32;;;;;;;;;;;11.90;80.80;;;;;;5087062;28;19929;-63
2022/09/18 00:26:00;;;;;;;;;;;11.90;80.80;;;;;;5089862;28;20398;-63
2022/09/18 00:28:28;;;;;;;;;;;11.90;81.10;;;;;;5081636;28;19947;-64
2022/09/18 00:30:54;;;;;;;;;;;11.90;80.80;;;;;;5080533;28;19931;-64
2022/09/18 00:33:21;;;;;;;;;;;11.90;80.90;;;;;;5088019;28;20541;-63
2022/09/18 00:35:48;;;;;;;;;;;11.90;80.90;;;;;;5070517;28;19931;-63
2022/09/18 00:38:14;;;;;;;;;;;11.90;81.00;;;;;;5093656;28;19931;-63
2022/09/18 00:40:41;;;;;;;;;;;11.90;81.10;;;;;;5071382;28;19989;-65
2022/09/18 00:43:20;;;;;;;;;;;11.90;81.30;;;;;;5088333;28;19924;-64
2022/09/18 00:45:51;;;;;;;;;;;11.90;81.50;;;;;;5092883;28;20365;-63
2022/09/18 00:48:18;;;;;;;;;;;11.90;81.50;;;;;;5090790;28;20037;-64
2022/09/18 00:50:45;;;;;;;;;;;11.90;81.20;;;;;;5090500;28;20012;-63
2022/09/18 00:53:12;;;;;;;;;;;11.90;81.40;;;;;;5091195;28;20416;-64
2022/09/18 00:55:39;;;;;;;;;;;11.90;81.30;;;;;;5069148;28;19931;-63
2022/09/18 00:58:06;;;;;;;;;;;11.90;81.30;;;;;;5085633;28;20373;-65
2022/09/18 01:00:37;;;;;;;;;;;11.90;81.40;;;;;;5086149;28;19935;-65
2022/09/18 01:03:04;;;;;;;;;;;11.90;81.70;;;;;;5068582;28;19924;-63
2022/09/18 01:05:36;;;;;;;;;;;11.90;81.70;;;;;;5078377;28;20471;-63
2022/09/18 01:08:09;;;;;;;;;;;11.90;81.60;;;;;;5088036;28;19978;-64
2022/09/18 01:10:41;;;;;;;;;;;11.90;81.80;;;;;;5087902;28;19950;-64
2022/09/18 01:13:14;;;;;;;;;;;11.90;81.60;;;;;;5091731;28;19924;-64
2022/09/18 01:15:47;;;;;;;;;;;11.90;81.60;;;;;;5065622;28;20022;-64
2022/09/18 01:18:16;;;;;;;;;;;11.90;81.70;;;;;;5083465;28;19924;-63
2022/09/18 01:20:55;;;;;;;;;;;11.90;81.60;;;;;;5072281;28;19925;-64
2022/09/18 01:23:40;;;;;;;;;;;11.90;81.80;;;;;;5082696;28;19931;-64
2022/09/18 01:26:14;;;;;;;;;;;11.90;81.70;;;;;;5072641;28;19924;-64
2022/09/18 01:28:44;;;;;;;;;;;11.90;82.00;;;;;;5067510;28;19947;-64
2022/09/18 01:31:15;;;;;;;;;;;11.90;82.00;;;;;;5099113;28;19964;-63
2022/09/18 01:33:45;;;;;;;;;;;11.90;82.10;;;;;;5089783;28;20377;-63
2022/09/18 01:36:14;;;;;;;;;;;11.90;82.00;;;;;;5082294;28;19924;-63
2022/09/18 01:38:42;;;;;;;;;;;11.90;81.90;;;;;;5093557;28;20410;-63
2022/09/18 01:41:11;;;;;;;;;;;11.90;82.00;;;;;;5076307;28;19924;-63
2022/09/18 01:43:42;;;;;;;;;;;11.90;82.00;;;;;;5076013;28;20881;-65
2022/09/18 01:46:14;;;;;;;;;;;11.90;82.20;;;;;;5078275;28;19924;-63
2022/09/18 01:48:45;;;;;;;;;;;11.90;82.10;;;;;;5072951;28;19931;-64
2022/09/18 01:51:14;;;;;;;;;;;11.80;82.20;;;;;;5090458;28;20443;-64
2022/09/18 01:53:45;;;;;;;;;;;11.80;82.00;;;;;;5089312;28;20408;-63
2022/09/18 01:56:16;;;;;;;;;;;11.80;82.00;;;;;;5096352;28;19924;-65
2022/09/18 01:58:44;;;;;;;;;;;11.80;82.00;;;;;;5083511;28;19928;-64
2022/09/18 02:01:14;;;;;;;;;;;11.80;82.00;;;;;;5091893;28;19932;-64
2022/09/18 02:03:44;;;;;;;;;;;11.80;81.90;;;;;;5078054;28;20057;-63
2022/09/18 02:06:13;;;;;;;;;;;11.90;81.90;;;;;;5090976;28;19924;-64
2022/09/18 02:08:42;;;;;;;;;;;11.80;82.20;;;;;;5070356;28;19931;-64
2022/09/18 02:11:10;;;;;;;;;;;11.90;82.10;;;;;;5096194;28;19935;-64
2022/09/18 02:13:39;;;;;;;;;;;11.80;81.90;;;;;;5079707;28;19924;-63
2022/09/18 02:16:08;;;;;;;;;;;11.80;82.20;;;;;;5072883;28;20023;-64
2022/09/18 02:18:38;;;;;;;;;;;11.80;82.00;;;;;;5086259;28;19937;-63
2022/09/18 02:21:07;;;;;;;;;;;11.80;82.20;;;;;;5078641;28;20408;-64
2022/09/18 02:23:36;;;;;;;;;;;11.80;82.20;;;;;;5089031;28;20025;-64
2022/09/18 02:26:06;;;;;;;;;;;11.80;82.00;;;;;;5070649;28;20067;-63
2022/09/18 02:28:34;;;;;;;;;;;11.70;82.20;;;;;;5095207;28;19973;-65
2022/09/18 02:31:00;;;;;;;;;;;11.70;82.40;;;;;;5091535;28;19932;-64
2022/09/18 02:33:28;;;;;;;;;;;11.70;82.30;;;;;;5094065;28;19931;-64
2022/09/18 02:36:18;;;;;;;;;;;11.80;82.30;;;;;;5094432;28;19939;-64
2022/09/18 02:38:49;;;;;;;;;;;11.80;82.20;;;;;;5057662;28;20289;-64
2022/09/18 02:41:20;;;;;;;;;;;11.70;82.20;;;;;;5079341;28;19928;-64
2022/09/18 02:43:50;;;;;;;;;;;11.70;82.10;;;;;;5093339;28;19931;-64
2022/09/18 02:46:20;;;;;;;;;;;11.80;82.30;;;;;;5077514;28;19924;-64
2022/09/18 02:48:48;;;;;;;;;;;11.80;82.20;;;;;;5072505;28;20298;-64
2022/09/18 02:51:20;;;;;;;;;;;11.80;82.10;;;;;;5087746;28;19960;-66
2022/09/18 02:53:52;;;;;;;;;;;11.80;82.10;;;;;;5076397;28;19931;-63
2022/09/18 02:56:24;;;;;;;;;;;11.70;82.10;;;;;;5076621;28;19924;-65
2022/09/18 02:58:54;;;;;;;;;;;11.80;82.10;;;;;;5093473;28;19958;-63
2022/09/18 03:01:25;;;;;;;;;;;11.70;82.20;;;;;;5073115;28;20369;-64
2022/09/18 03:04:02;;;;;;;;;;;11.80;82.30;;;;;;5075487;28;19930;-63
2022/09/18 03:06:39;;;;;;;;;;;11.70;82.30;;;;;;5063917;28;19931;-64
2022/09/18 03:09:07;;;;;;;;;;;11.70;82.20;;;;;;5073054;28;19924;-63
2022/09/18 03:11:35;;;;;;;;;;;11.80;81.90;;;;;;5065312;28;20377;-64
2022/09/18 03:14:04;;;;;;;;;;;11.80;81.90;;;;;;5071465;28;19935;-64
2022/09/18 03:16:31;;;;;;;;;;;11.80;81.80;;;;;;5072012;28;20280;-64
2022/09/18 03:18:58;;;;;;;;;;;11.80;81.70;;;;;;5087566;28;19928;-63
2022/09/18 03:21:26;;;;;;;;;;;11.80;81.70;;;;;;5071044;28;19928;-63
2022/09/18 03:23:52;;;;;;;;;;;11.80;81.70;;;;;;5083188;28;20290;-63
2022/09/18 03:26:26;;;;;;;;;;;11.80;81.70;;;;;;5084042;28;20026;-63
2022/09/18 03:28:53;;;;;;;;;;;11.80;81.70;;;;;;5070919;28;19924;-63
2022/09/18 03:31:20;;;;;;;;;;;11.70;81.70;;;;;;5061693;28;19928;-63
2022/09/18 03:33:47;;;;;;;;;;;11.70;81.70;;;;;;5088287;28;19927;-64
2022/09/18 03:36:14;;;;;;;;;;;11.70;81.80;;;;;;5096073;28;19924;-64
2022/09/18 03:38:41;;;;;;;;;;;11.70;81.80;;;;;;5075104;28;19924;-63
2022/09/18 03:41:08;;;;;;;;;;;11.70;81.90;;;;;;5063012;28;20104;-62
2022/09/18 03:43:36;;;;;;;;;;;11.80;81.80;;;;;;5084106;28;19974;-63
2022/09/18 03:46:04;;;;;;;;;;;11.70;81.90;;;;;;5064400;28;19985;-64
2022/09/18 03:48:32;;;;;;;;;;;11.80;82.00;;;;;;5068055;28;20013;-63
2022/09/18 03:50:59;;;;;;;;;;;11.80;81.80;;;;;;5064327;28;19924;-65
2022/09/18 03:53:34;;;;;;;;;;;11.80;82.00;;;;;;5065642;28;19932;-65
2022/09/18 03:56:30;;;;;;;;;;;11.80;81.90;;;;;;5032572;28;20450;-64
2022/09/18 03:59:21;;;;;;;;;;;11.80;82.00;;;;;;5058601;28;19931;-64
2022/09/18 04:01:58;;;;;;;;;;;11.80;82.30;;;;;;5080544;28;20021;-64
2022/09/18 04:04:28;;;;;;;;;;;11.80;81.90;;;;;;5087595;28;19938;-63
2022/09/18 04:07:04;;;;;;;;;;;11.80;82.10;;;;;;5087351;28;19924;-64
2022/09/18 04:09:43;;;;;;;;;;;11.80;82.00;;;;;;5088570;28;20289;-63
2022/09/18 04:12:19;;;;;;;;;;;11.70;82.20;;;;;;5095921;28;20009;-64
2022/09/18 04:14:57;;;;;;;;;;;11.70;82.30;;;;;;5090042;28;19924;-65
2022/09/18 04:17:24;;;;;;;;;;;11.70;82.20;;;;;;5066217;28;19924;-64
2022/09/18 04:19:51;;;;;;;;;;;11.70;82.50;;;;;;5087362;28;19952;-62
2022/09/18 04:22:17;;;;;;;;;;;11.70;82.60;;;;;;5088268;28;19931;-64
2022/09/18 04:24:50;;;;;;;;;;;11.70;82.60;;;;;;5085730;28;19924;-65
2022/09/18 04:27:17;;;;;;;;;;;11.80;82.60;;;;;;5077547;28;20019;-63
2022/09/18 04:29:44;;;;;;;;;;;11.80;82.50;;;;;;5081438;28;19933;-63
2022/09/18 04:32:14;;;;;;;;;;;11.70;82.60;;;;;;5066143;28;19964;-64
2022/09/18 04:34:42;;;;;;;;;;;11.70;82.40;;;;;;5074692;28;19932;-63
2022/09/18 04:37:09;;;;;;;;;;;11.80;82.60;;;;;;5062973;28;19924;-64
2022/09/18 04:39:36;;;;;;;;;;;11.80;82.40;;;;;;5064731;28;19932;-64
2022/09/18 04:42:04;;;;;;;;;;;11.70;82.30;;;;;;5079489;28;19929;-63
2022/09/18 04:44:31;;;;;;;;;;;11.70;82.50;;;;;;5084229;28;19928;-63
2022/09/18 04:46:58;;;;;;;;;;;11.70;82.60;;;;;;5067821;28;19924;-64
2022/09/18 04:49:27;;;;;;;;;;;11.80;82.70;;;;;;5074335;28;20043;-63
2022/09/18 04:51:54;;;;;;;;;;;11.80;82.60;;;;;;5077470;28;20018;-63
2022/09/18 04:54:20;;;;;;;;;;;11.70;83.00;;;;;;5063826;28;19940;-64
2022/09/18 04:56:47;;;;;;;;;;;11.80;82.80;;;;;;5084382;28;19928;-65
2022/09/18 04:59:14;;;;;;;;;;;11.70;83.10;;;;;;5064291;28;19925;-63
2022/09/18 05:01:45;;;;;;;;;;;11.70;83.10;;;;;;5065145;28;20019;-62
2022/09/18 05:04:15;;;;;;;;;;;11.80;83.00;;;;;;5061282;28;19931;-63
2022/09/18 05:06:54;;;;;;;;;;;11.80;83.20;;;;;;5065574;28;19950;-63
2022/09/18 05:09:22;;;;;;;;;;;11.80;83.20;;;;;;5061685;28;20297;-64
2022/09/18 05:11:49;;;;;;;;;;;11.80;83.20;;;;;;5084107;28;19936;-64
2022/09/18 05:14:16;;;;;;;;;;;11.70;83.00;;;;;;5068073;28;20837;-63
2022/09/18 05:16:49;;;;;;;;;;;11.80;83.20;;;;;;5070961;28;19932;-64
2022/09/18 05:19:42;;;;;;;;;;;11.80;83.30;;;;;;5082977;28;20308;-63
2022/09/18 05:22:16;;;;;;;;;;;11.70;83.60;;;;;;5066206;28;19928;-64
2022/09/18 05:24:47;;;;;;;;;;;11.80;83.10;;;;;;5087887;28;19927;-63
2022/09/18 05:27:14;;;;;;;;;;;11.70;83.50;;;;;;5079982;28;19936;-63
2022/09/18 05:29:40;;;;;;;;;;;11.70;83.40;;;;;;5081384;28;19927;-64
2022/09/18 05:32:17;;;;;;;;;;;11.80;83.60;;;;;;5067181;28;20337;-63
2022/09/18 05:34:44;;;;;;;;;;;11.80;83.60;;;;;;5070050;28;19965;-64
2022/09/18 05:37:11;;;;;;;;;;;11.80;83.80;;;;;;5084210;28;20391;-63
2022/09/18 05:39:43;;;;;;;;;;;11.80;83.70;;;;;;5063073;28;19931;-64
2022/09/18 05:42:11;;;;;;;;;;;11.80;83.60;;;;;;5084091;28;19932;-64
2022/09/18 05:44:37;;;;;;;;;;;11.80;83.70;;;;;;5061994;28;19924;-64
2022/09/18 05:47:12;;;;;;;;;;;11.80;83.70;;;;;;5089363;28;19936;-64
2022/09/18 05:49:40;;;;;;;;;;;11.80;83.70;;;;;;5082787;28;19978;-64
2022/09/18 05:52:07;;;;;;;;;;;11.80;83.90;;;;;;5062485;28;20067;-64
2022/09/18 05:54:35;;;;;;;;;;;11.80;84.00;;;;;;5087255;28;19928;-62
2022/09/18 05:57:03;;;;;;;;;;;11.80;84.10;;;;;;5068324;28;19960;-63
2022/09/18 05:59:31;;;;;;;;;;;11.90;83.90;;;;;;5076437;28;20340;-64
2022/09/18 06:01:59;;;;;;;;;;;11.90;84.10;;;;;;5076235;28;20014;-64
2022/09/18 06:04:49;;;;;;;;;;;11.80;84.00;;;;;;5072929;28;19924;-64
2022/09/18 06:07:17;;;;;;;;;;;11.80;84.20;;;;;;5064780;28;19924;-64
2022/09/18 06:09:46;;;;;;;;;;;11.80;84.20;;;;;;5064465;28;19950;-64
2022/09/18 06:12:14;;;;;;;;;;;11.80;84.10;;;;;;5076629;28;20023;-64
2022/09/18 06:14:40;;;;;;;;;;;11.80;84.10;;;;;;5087291;28;19924;-63
2022/09/18 06:17:07;;;;;;;;;;;11.80;84.00;;;;;;5089633;28;20377;-65
2022/09/18 06:19:37;;;;;;;;;;;11.80;84.40;;;;;;5071461;28;19931;-63
2022/09/18 06:22:03;;;;;;;;;;;11.80;84.30;;;;;;5091151;28;19924;-62
2022/09/18 06:24:31;;;;;;;;;;;11.80;84.40;;;;;;5072229;28;19932;-64
2022/09/18 06:27:07;;;;;;;;;;;11.80;84.20;;;;;;5087808;28;19932;-62
2022/09/18 06:29:35;;;;;;;;;;;11.80;84.10;;;;;;5087035;28;19924;-64
2022/09/18 06:32:08;;;;;;;;;;;11.90;84.00;;;;;;5075435;28;19932;-62
2022/09/18 06:34:38;;;;;;;;;;;11.90;84.00;;;;;;5067424;28;19928;-63
2022/09/18 06:37:09;;;;;;;;;;;11.90;84.10;;;;;;5063380;28;19942;-65
2022/09/18 06:39:41;;;;;;;;;;;11.90;83.90;;;;;;5091138;28;19931;-63
2022/09/18 06:42:19;;;;;;;;;;;11.90;83.90;;;;;;5065320;28;20381;-64
2022/09/18 06:45:06;;;;;;;;;;;12.00;83.80;;;;;;5090464;28;19931;-64
2022/09/18 06:47:33;;;;;;;;;;;12.00;83.80;;;;;;5071581;28;20370;-63
2022/09/18 06:50:00;;;;;;;;;;;12.00;83.60;;;;;;5063551;28;19935;-64
2022/09/18 06:52:28;;;;;;;;;;;12.00;84.00;;;;;;5068059;28;20538;-62
2022/09/18 06:54:57;;;;;;;;;;;12.00;83.90;;;;;;5061347;28;20010;-65
2022/09/18 06:57:31;;;;;;;;;;;12.10;83.80;;;;;;5071292;28;20718;-65
2022/09/18 07:00:00;;;;;;;;;;;12.10;83.50;;;;;;5069436;28;19935;-63
2022/09/18 07:02:37;;;;;;;;;;;12.10;83.50;;;;;;5087850;28;20018;-63
2022/09/18 07:05:26;;;;;;;;;;;12.10;83.50;;;;;;5083426;28;19977;-63
2022/09/18 07:07:52;;;;;;;;;;;12.20;83.60;;;;;;5074859;28;20373;-64
2022/09/18 07:10:19;;;;;;;;;;;12.20;83.50;;;;;;5087493;28;19971;-64
2022/09/18 07:12:48;;;;;;;;;;;12.20;83.30;;;;;;5070574;28;19928;-63
2022/09/18 07:15:16;;;;;;;;;;;12.20;83.20;;;;;;5070412;28;19924;-63
2022/09/18 07:17:46;;;;;;;;;;;12.30;83.10;;;;;;5072318;28;19978;-64
2022/09/18 07:20:16;;;;;;;;;;;12.30;83.20;;;;;;5086761;28;19924;-64
2022/09/18 07:22:43;;;;;;;;;;;12.30;83.20;;;;;;5074345;28;19932;-67
2022/09/18 07:25:10;;;;;;;;;;;12.30;83.20;;;;;;5092302;28;19928;-63
2022/09/18 07:27:41;;;;;;;;;;;12.30;83.30;;;;;;5079366;28;20408;-65
2022/09/18 07:30:08;;;;;;;;;;;12.40;83.20;;;;;;5065884;28;19962;-64
2022/09/18 07:32:35;;;;;;;;;;;12.40;83.00;;;;;;5070693;28;20019;-64
2022/09/18 07:35:04;;;;;;;;;;;12.40;83.00;;;;;;5090255;28;19946;-64
2022/09/18 07:37:32;;;;;;;;;;;12.50;83.10;;;;;;5067008;28;19925;-64
2022/09/18 07:40:20;;;;;;;;;;;12.60;83.00;;;;;;5073515;28;19924;-64
2022/09/18 07:43:05;;;;;;;;;;;12.50;83.10;;;;;;5068899;28;19931;-62
2022/09/18 07:45:32;;;;;;;;;;;12.50;83.10;;;;;;5068163;28;20039;-64
2022/09/18 07:48:00;;;;;;;;;;;12.60;83.10;;;;;;5060178;28;19928;-63
2022/09/18 07:50:32;;;;;;;;;;;12.60;83.10;;;;;;5060999;28;20289;-63
2022/09/18 07:53:04;;;;;;;;;;;12.60;83.10;;;;;;5071146;28;19974;-63
2022/09/18 07:55:35;;;;;;;;;;;12.70;83.00;;;;;;5067841;28;19974;-64
2022/09/18 07:58:03;;;;;;;;;;;12.70;82.90;;;;;;5090287;28;19931;-64
2022/09/18 08:00:54;;;;;;;;;;;12.80;82.80;;;;;;5062845;28;19925;-66
2022/09/18 08:03:24;;;;;;;;;;;12.80;83.00;;;;;;5088030;28;19989;-65
2022/09/18 08:06:06;;;;;;;;;;;12.80;82.90;;;;;;5092370;28;19924;-66
2022/09/18 08:08:34;;;;;;;;;;;12.70;82.80;;;;;;5084233;28;20447;-67
2022/09/18 08:11:20;;;;;;;;;;;12.80;82.90;;;;;;5090469;28;19936;-66
2022/09/18 08:14:03;;;;;;;;;;;12.80;82.90;;;;;;5065487;28;19925;-66
2022/09/18 08:16:42;;;;;;;;;;;12.70;83.00;;;;;;5085523;28;19924;-65
2022/09/18 08:19:32;;;;;;;;;;;12.70;83.10;;;;;;5063755;28;19939;-65
2022/09/18 08:22:06;;;;;;;;;;;12.80;83.20;;;;;;5072328;28;19924;-66
2022/09/18 08:24:33;;;;;;;;;;;12.70;83.10;;;;;;5062223;28;20294;-66
2022/09/18 08:27:02;;;;;;;;;;;12.80;83.10;;;;;;5069918;28;20238;-66
2022/09/18 08:29:32;;;;;;;;;;;12.80;83.10;;;;;;5064683;28;20011;-65
2022/09/18 08:32:03;;;;;;;;;;;12.80;83.00;;;;;;5066545;28;20031;-65
2022/09/18 08:34:37;;;;;;;;;;;12.90;82.90;;;;;;5072614;28;20296;-66
2022/09/18 08:37:04;;;;;;;;;;;12.90;83.10;;;;;;5080731;28;20026;-67
2022/09/18 08:39:51;;;;;;;;;;;12.90;83.30;;;;;;5080776;28;19931;-66
2022/09/18 08:42:43;;;;;;;;;;;13.00;83.30;;;;;;5066909;28;20460;-66
2022/09/18 08:45:28;;;;;;;;;;;13.00;83.10;;;;;;5090526;28;19977;-67
2022/09/18 08:47:57;;;;;;;;;;;13.10;83.10;;;;;;5083232;28;19969;-66
2022/09/18 08:50:27;;;;;;;;;;;13.10;83.00;;;;;;5065867;28;19974;-67
2022/09/18 08:52:59;;;;;;;;;;;13.10;82.60;;;;;;5069478;28;19924;-67
2022/09/18 08:55:46;;;;;;;;;;;13.10;82.70;;;;;;5080134;28;19931;-66
2022/09/18 08:58:37;;;;;;;;;;;13.10;82.90;;;;;;5068896;28;20025;-66
2022/09/18 09:01:07;;;;;;;;;;;13.10;83.00;;;;;;5068658;28;19924;-66
2022/09/18 09:03:44;;;;;;;;;;;13.10;82.80;;;;;;5086211;28;19962;-66
2022/09/18 09:06:16;;;;;;;;;;;13.10;83.10;;;;;;5078391;28;19924;-65
2022/09/18 09:08:57;;;;;;;;;;;13.20;83.10;;;;;;5086512;28;19932;-65
2022/09/18 09:11:32;;;;;;;;;;;13.10;82.90;;;;;;5072940;28;19928;-66
2022/09/18 09:14:07;;;;;;;;;;;13.20;82.90;;;;;;5058461;28;19928;-66
2022/09/18 09:16:40;;;;;;;;;;;13.20;83.10;;;;;;5073498;28;19970;-64
2022/09/18 09:19:16;;;;;;;;;;;13.20;82.80;;;;;;5082182;28;19932;-66
2022/09/18 09:21:51;;;;;;;;;;;13.30;82.80;;;;;;5081950;28;19924;-66
2022/09/18 09:24:25;;;;;;;;;;;13.20;82.90;;;;;;5069692;28;19935;-66
2022/09/18 09:27:18;;;;;;;;;;;13.20;82.80;;;;;;5084060;28;19981;-66
2022/09/18 09:30:05;;;;;;;;;;;13.20;82.90;;;;;;5079021;28;19935;-67
2022/09/18 09:32:41;;;;;;;;;;;13.20;83.00;;;;;;5079887;28;19925;-67
2022/09/18 09:35:31;;;;;;;;;;;13.20;83.00;;;;;;5069202;28;19932;-66
2022/09/18 09:38:31;;;;;;;;;;;13.20;83.10;;;;;;5071870;28;19964;-66
2022/09/18 09:40:59;;;;;;;;;;;13.20;83.20;;;;;;5081800;28;19928;-66
2022/09/18 09:43:31;;;;;;;;;;;13.10;83.40;;;;;;5069440;28;19928;-66
2022/09/18 09:46:00;;;;;;;;;;;13.20;83.50;;;;;;5081114;28;19928;-66
2022/09/18 09:48:34;;;;;;;;;;;13.20;83.50;;;;;;5075571;28;19928;-67
2022/09/18 09:51:04;;;;;;;;;;;13.20;83.40;;;;;;5069801;28;19998;-66
2022/09/18 09:53:31;;;;;;;;;;;13.20;83.30;;;;;;5085077;28;19930;-67
2022/09/18 09:56:06;;;;;;;;;;;13.20;83.50;;;;;;5074648;28;19928;-66
2022/09/18 09:58:39;;;;;;;;;;;13.20;83.40;;;;;;5075333;28;19924;-67
2022/09/18 10:01:10;;;;;;;;;;;13.20;83.60;;;;;;5060615;28;19930;-68
2022/09/18 10:03:42;;;;;;;;;;;13.10;83.60;;;;;;5070124;28;19935;-65
2022/09/18 10:06:15;;;;;;;;;;;13.10;83.70;;;;;;5074305;28;20437;-67
2022/09/18 10:08:45;;;;;;;;;;;13.10;83.80;;;;;;5076376;28;20412;-67
2022/09/18 10:11:14;;;;;;;;;;;13.20;83.80;;;;;;5082925;28;19978;-67
2022/09/18 10:13:48;;;;;;;;;;;13.20;83.70;;;;;;5070673;28;19932;-66
2022/09/18 10:16:17;;;;;;;;;;;13.20;83.80;;;;;;5070584;28;19924;-67
2022/09/18 10:18:45;;;;;;;;;;;13.20;83.80;;;;;;5080588;28;19931;-67
2022/09/18 10:21:13;;;;;;;;;;;13.10;83.90;;;;;;5075396;28;19977;-66
2022/09/18 10:23:41;;;;;;;;;;;13.10;84.00;;;;;;5092255;28;19929;-66
2022/09/18 10:26:11;;;;;;;;;;;13.00;84.10;;;;;;5083185;28;19953;-66
2022/09/18 10:28:37;;;;;;;;;;;13.00;84.30;;;;;;5084751;28;19928;-65
2022/09/18 10:31:09;;;;;;;;;;;13.00;84.60;;;;;;5064331;28;19947;-65
2022/09/18 10:33:38;;;;;;;;;;;12.90;84.60;;;;;;5069876;28;19938;-67
2022/09/18 10:36:23;;;;;;;;;;;12.90;84.80;;;;;;5072115;28;20381;-66
2022/09/18 10:38:51;;;;;;;;;;;12.90;84.80;;;;;;5091813;28;19931;-66
2022/09/18 10:41:27;;;;;;;;;;;12.90;85.00;;;;;;5065955;28;19970;-66
2022/09/18 10:43:58;;;;;;;;;;;12.90;85.20;;;;;;5081494;28;19933;-66
2022/09/18 10:46:29;;;;;;;;;;;12.90;85.20;;;;;;5071302;28;19931;-66
2022/09/18 10:48:58;;;;;;;;;;;13.00;85.20;;;;;;5074242;28;19932;-66
2022/09/18 10:51:27;;;;;;;;;;;13.00;85.10;;;;;;5058844;28;19982;-65
2022/09/18 10:54:00;;;;;;;;;;;13.00;85.10;;;;;;5070134;28;19947;-66
2022/09/18 10:56:38;;;;;;;;;;;13.00;85.10;;;;;;5078728;28;19935;-66
2022/09/18 10:59:17;;;;;;;;;;;13.00;84.80;;;;;;5067763;28;19978;-66
2022/09/18 11:01:46;;;;;;;;;;;13.10;85.20;;;;;;5064973;28;19924;-65
2022/09/18 11:04:15;;;;;;;;;;;13.10;84.90;;;;;;5071194;28;20294;-66
2022/09/18 11:06:44;;;;;;;;;;;13.10;84.80;;;;;;5069556;28;19931;-65
2022/09/18 11:09:19;;;;;;;;;;;13.20;84.60;;;;;;5093292;28;19969;-67
2022/09/18 11:11:50;;;;;;;;;;;13.10;84.40;;;;;;5067443;28;20023;-66
2022/09/18 11:14:22;;;;;;;;;;;13.10;84.60;;;;;;5068803;28;19928;-66
2022/09/18 11:17:02;;;;;;;;;;;13.20;84.40;;;;;;5071217;28;19928;-66
2022/09/18 11:19:36;;;;;;;;;;;13.20;84.30;;;;;;5071674;28;20007;-66
2022/09/18 11:22:28;;;;;;;;;;;13.20;84.20;;;;;;5076671;28;19971;-66
2022/09/18 11:25:05;;;;;;;;;;;13.20;84.40;;;;;;5083667;28;19932;-66
2022/09/18 11:27:43;;;;;;;;;;;13.20;84.30;;;;;;5077541;28;19932;-67
2022/09/18 11:30:14;;;;;;;;;;;13.20;84.60;;;;;;5061309;28;19957;-66
2022/09/18 11:32:45;;;;;;;;;;;13.20;84.60;;;;;;5069012;28;19924;-66
2022/09/18 11:35:14;;;;;;;;;;;13.20;84.60;;;;;;5073000;28;20265;-66
2022/09/18 11:37:44;;;;;;;;;;;13.20;84.60;;;;;;5073652;28;19982;-66
2022/09/18 11:40:17;;;;;;;;;;;13.10;84.90;;;;;;5072078;28;20504;-66
2022/09/18 11:42:45;;;;;;;;;;;13.10;84.50;;;;;;5069347;28;19986;-65
2022/09/18 11:45:34;;;;;;;;;;;13.10;84.80;;;;;;5058710;28;19935;-66
2022/09/18 11:48:08;;;;;;;;;;;13.10;84.90;;;;;;5066176;28;19934;-64
2022/09/18 11:50:36;;;;;;;;;;;13.10;84.90;;;;;;5091344;28;20377;-66
2022/09/18 11:53:09;;;;;;;;;;;13.10;84.70;;;;;;5066994;28;20328;-66
2022/09/18 11:55:38;;;;;;;;;;;13.10;84.70;;;;;;5070873;28;19977;-66
2022/09/18 11:58:08;;;;;;;;;;;13.00;84.70;;;;;;5068446;28;19924;-66
2022/09/18 12:00:42;;;;;;;;;;;13.10;84.40;;;;;;5065460;28;19928;-66
2022/09/18 12:03:15;;;;;;;;;;;13.20;84.50;;;;;;5071525;28;19967;-66
2022/09/18 12:05:50;;;;;;;;;;;13.20;84.50;;;;;;5071313;28;20360;-66
2022/09/18 12:08:21;;;;;;;;;;;13.20;84.30;;;;;;5076318;28;19924;-66
2022/09/18 12:10:56;;;;;;;;;;;13.20;84.30;;;;;;5073671;28;19928;-66
2022/09/18 12:13:33;;;;;;;;;;;13.10;84.20;;;;;;5059453;28;19932;-66
2022/09/18 12:16:03;;;;;;;;;;;13.10;84.20;;;;;;5068449;28;19932;-66
2022/09/18 12:18:35;;;;;;;;;;;13.10;84.00;;;;;;5066849;28;19931;-64
2022/09/18 12:21:03;;;;;;;;;;;13.20;84.00;;;;;;5078286;28;19974;-66
2022/09/18 12:23:32;;;;;;;;;;;13.10;84.00;;;;;;5065634;28;19924;-65
2022/09/18 12:26:07;;;;;;;;;;;13.20;83.90;;;;;;5063029;28;19928;-64
2022/09/18 12:29:12;;;;;;;;;;;13.20;83.90;;;;;;5064937;28;20296;-66
2022/09/18 12:31:46;;;;;;;;;;;13.20;83.80;;;;;;5080615;28;20293;-65
2022/09/18 12:34:23;;;;;;;;;;;13.30;83.90;;;;;;5087383;28;20353;-66
2022/09/18 12:36:58;;;;;;;;;;;13.30;83.70;;;;;;5078074;28;20290;-66
2022/09/18 12:39:38;;;;;;;;;;;13.30;83.60;;;;;;5082755;28;19928;-66
2022/09/18 12:42:14;;;;;;;;;;;13.30;83.50;;;;;;5082907;28;20392;-74
2022/09/18 12:44:49;;;;;;;;;;;13.30;83.60;;;;;;5069556;28;20455;-66
2022/09/18 12:47:30;;;;;;;;;;;13.20;83.70;;;;;;5088947;28;19924;-65
2022/09/18 12:50:05;;;;;;;;;;;13.20;83.80;;;;;;5102863;28;19954;-66
2022/09/18 12:52:38;;;;;;;;;;;13.20;84.00;;;;;;5101403;28;19931;-66
2022/09/18 12:55:35;;;;;;;;;;;13.20;84.10;;;;;;5069791;28;20305;-65
2022/09/18 12:58:06;;;;;;;;;;;13.10;84.20;;;;;;5008926;28;19934;-67
2022/09/18 13:00:34;;;;;;;;;;;13.10;84.30;;;;;;5065179;28;19938;-66
2022/09/18 13:03:03;;;;;;;;;;;13.10;84.20;;;;;;5080041;28;19924;-66
2022/09/18 13:05:34;;;;;;;;;;;13.10;84.00;;;;;;5086186;28;20400;-64
2022/09/18 13:08:03;;;;;;;;;;;13.10;84.20;;;;;;5084166;28;20404;-66
2022/09/18 13:10:34;;;;;;;;;;;13.10;84.20;;;;;;5087520;28;19932;-67
2022/09/18 13:13:04;;;;;;;;;;;13.10;84.00;;;;;;5081739;28;19924;-67
2022/09/18 13:15:33;;;;;;;;;;;13.10;84.00;;;;;;5081513;28;19928;-66
2022/09/18 13:18:07;;;;;;;;;;;13.10;83.70;;;;;;5088703;28;20574;-66
2022/09/18 13:20:38;;;;;;;;;;;13.20;83.50;;;;;;5086880;28;20373;-65
2022/09/18 13:23:05;;;;;;;;;;;13.20;83.30;;;;;;5079508;28;19936;-66
2022/09/18 13:25:35;;;;;;;;;;;13.20;83.10;;;;;;5077210;28;19931;-65
2022/09/18 13:28:03;;;;;;;;;;;13.20;82.90;;;;;;5085322;28;19943;-65
2022/09/18 13:30:30;;;;;;;;;;;13.30;82.70;;;;;;5082839;28;19932;-64
2022/09/18 13:32:58;;;;;;;;;;;13.30;82.70;;;;;;5083980;28;19963;-66
2022/09/18 13:35:27;;;;;;;;;;;13.30;82.70;;;;;;5081823;28;20460;-66
2022/09/18 13:38:06;;;;;;;;;;;13.30;82.70;;;;;;5083950;28;19931;-66
2022/09/18 13:40:34;;;;;;;;;;;13.30;82.50;;;;;;5082296;28;20336;-65
2022/09/18 13:43:14;;;;;;;;;;;13.30;82.50;;;;;;5085389;28;19982;-66
2022/09/18 13:45:41;;;;;;;;;;;13.20;82.70;;;;;;5083456;28;19925;-66
2022/09/18 13:48:16;;;;;;;;;;;13.20;82.80;;;;;;5089470;28;19932;-67
2022/09/18 13:50:48;;;;;;;;;;;13.20;83.00;;;;;;5082470;28;19928;-67
2022/09/18 13:53:29;;;;;;;;;;;13.20;82.90;;;;;;5078997;28;19928;-65
2022/09/18 13:55:56;;;;;;;;;;;13.20;82.70;;;;;;5093585;28;19931;-66
2022/09/18 13:58:34;;;;;;;;;;;13.20;82.70;;;;;;5068363;28;19928;-66
2022/09/18 14:01:01;;;;;;;;;;;13.10;82.80;;;;;;5087440;28;19931;-66
2022/09/18 14:03:32;;;;;;;;;;;13.10;82.50;;;;;;5081281;28;20502;-65
2022/09/18 14:06:19;;;;;;;;;;;13.20;82.50;;;;;;5089883;28;19924;-66
2022/09/18 14:08:47;;;;;;;;;;;13.20;82.50;;;;;;5081653;28;20018;-65
2022/09/18 14:11:22;;;;;;;;;;;13.20;82.70;;;;;;5088630;28;19977;-66
2022/09/18 14:13:52;;;;;;;;;;;13.20;82.60;;;;;;5088363;28;19932;-66
2022/09/18 14:16:28;;;;;;;;;;;13.10;82.50;;;;;;5086975;28;19924;-66
2022/09/18 14:18:56;;;;;;;;;;;13.10;82.40;;;;;;5087264;28;19998;-67
2022/09/18 14:21:25;;;;;;;;;;;13.10;82.70;;;;;;5087370;28;20384;-66
2022/09/18 14:24:10;;;;;;;;;;;13.00;82.90;;;;;;5083784;28;19924;-67
2022/09/18 14:26:57;;;;;;;;;;;13.00;83.00;;;;;;5083408;28;19940;-67
2022/09/18 14:29:26;;;;;;;;;;;13.00;82.90;;;;;;5082424;28;19929;-66
2022/09/18 14:31:54;;;;;;;;;;;13.00;83.10;;;;;;5080479;28;19931;-66
2022/09/18 14:34:23;;;;;;;;;;;12.90;83.00;;;;;;5083193;28;19933;-66
2022/09/18 14:36:53;;;;;;;;;;;12.90;83.00;;;;;;5080638;28;19931;-66
2022/09/18 14:39:26;;;;;;;;;;;12.90;83.00;;;;;;5088483;28;19967;-66
2022/09/18 14:41:53;;;;;;;;;;;12.90;83.00;;;;;;5086017;28;19924;-66
2022/09/18 14:44:21;;;;;;;;;;;12.90;82.90;;;;;;5083999;28;19928;-65